createdAt,value
2019-03-02T00:01:26.305Z,17.50
2019-03-02T00:03:53.991Z,17.97
2019-03-02T00:06:21.612Z,17.83
2019-03-02T00:08:49.258Z,18.87
2019-03-02T00:11:17.937Z,15.53
2019-03-02T00:13:46.365Z,14.60
2019-03-02T00:16:13.996Z,19.17
2019-03-02T00:18:41.663Z,17.27
2019-03-02T00:21:09.291Z,17.70
2019-03-02T00:23:36.964Z,17.03
2019-03-02T00:26:06.330Z,15.20
2019-03-02T00:28:35.569Z,15.57
2019-03-02T00:31:03.394Z,18.13
2019-03-02T00:33:31.043Z,16.10
2019-03-02T00:35:58.686Z,17.37
2019-03-02T00:38:26.269Z,15.93
2019-03-02T00:40:53.951Z,17.17
2019-03-02T00:43:23.730Z,17.67
2019-03-02T00:45:51.091Z,15.90
2019-03-02T00:48:18.704Z,19.47
2019-03-02T00:50:46.354Z,16.90
2019-03-02T00:53:14.004Z,16.53
2019-03-02T00:55:41.653Z,15.43
2019-03-02T00:58:09.311Z,17.50
2019-03-02T01:00:36.935Z,16.50
2019-03-02T01:03:04.757Z,18.90
2019-03-02T01:05:33.463Z,18.93
2019-03-02T01:08:01.854Z,16.93
2019-03-02T01:10:29.541Z,17.73
2019-03-02T01:12:58.220Z,18.43
2019-03-02T01:15:25.842Z,19.50
2019-03-02T01:17:53.518Z,15.73
2019-03-02T01:20:21.172Z,16.27
2019-03-02T01:22:51.840Z,17.20
2019-03-02T01:25:18.295Z,18.27
2019-03-02T01:27:45.917Z,16.40
2019-03-02T01:30:15.181Z,15.07
2019-03-02T01:32:42.820Z,16.87
2019-03-02T01:35:10.819Z,14.67
2019-03-02T01:37:39.932Z,19.67
2019-03-02T01:40:10.249Z,17.80
2019-03-02T01:42:37.861Z,14.90
2019-03-02T01:45:07.115Z,14.63
2019-03-02T01:47:34.729Z,16.03
2019-03-02T01:50:02.390Z,15.70
2019-03-02T01:52:30.569Z,16.07
2019-03-02T01:54:59.473Z,19.97
2019-03-02T01:57:27.093Z,17.53
2019-03-02T01:59:54.747Z,16.00
2019-03-02T02:02:22.343Z,14.90
2019-03-02T02:04:49.993Z,16.77
2019-03-02T02:07:18.038Z,17.17
2019-03-02T02:09:46.868Z,15.07
2019-03-02T02:12:14.966Z,14.80
2019-03-02T02:14:42.586Z,17.70
2019-03-02T02:17:10.296Z,14.10
2019-03-02T02:19:38.603Z,13.80
2019-03-02T02:22:07.265Z,16.53
2019-03-02T02:24:34.879Z,14.73
2019-03-02T02:27:02.527Z,16.80
2019-03-02T02:29:30.131Z,14.80
2019-03-02T02:31:57.907Z,14.27
2019-03-02T02:34:25.566Z,16.47
2019-03-02T02:36:58.241Z,17.60
2019-03-02T02:39:22.623Z,16.43
2019-03-02T02:41:50.295Z,14.67
2019-03-02T02:44:17.975Z,17.63
2019-03-02T02:46:45.643Z,18.40
2019-03-02T02:49:13.282Z,15.43
2019-03-02T02:51:44.533Z,18.53
2019-03-02T02:54:10.422Z,17.60
2019-03-02T02:56:38.078Z,17.57
2019-03-02T02:59:05.739Z,21.83
2019-03-02T03:01:34.834Z,20.33
2019-03-02T03:04:02.672Z,19.70
2019-03-02T03:06:32.672Z,18.83
2019-03-02T03:08:59.748Z,19.97
2019-03-02T03:11:27.429Z,20.30
2019-03-02T03:13:55.042Z,19.63
2019-03-02T03:16:22.734Z,19.03
2019-03-02T03:18:52.411Z,19.63
2019-03-02T03:21:26.853Z,20.83
2019-03-02T03:23:49.253Z,19.27
2019-03-02T03:26:31.017Z,21.70
2019-03-02T03:28:58.956Z,25.27
2019-03-02T03:31:31.080Z,26.00
2019-03-02T03:33:56.006Z,26.37
2019-03-02T03:36:23.659Z,29.10
2019-03-02T03:38:51.282Z,27.53
2019-03-02T03:41:18.953Z,28.63
2019-03-02T03:43:46.623Z,30.00
2019-03-02T03:46:18.186Z,28.60
2019-03-02T03:48:43.784Z,31.93
2019-03-02T03:51:11.471Z,30.23
2019-03-02T03:53:39.083Z,27.97
2019-03-02T03:56:06.911Z,29.77
2019-03-02T03:58:35.217Z,31.70
2019-03-02T04:01:04.184Z,29.23
2019-03-02T04:03:32.015Z,29.83
2019-03-02T04:05:59.647Z,32.70
2019-03-02T04:08:28.791Z,35.33
2019-03-02T04:11:00.321Z,29.20
2019-03-02T04:13:26.161Z,31.37
2019-03-02T04:15:55.438Z,31.77
2019-03-02T04:18:55.169Z,34.73
2019-03-02T04:21:23.353Z,36.30
2019-03-02T04:23:50.525Z,34.00
2019-03-02T04:26:18.175Z,39.40
2019-03-02T04:28:45.795Z,39.97
2019-03-02T04:31:13.458Z,40.53
2019-03-02T04:33:43.170Z,42.03
2019-03-02T04:36:11.222Z,40.67
2019-03-02T04:38:39.083Z,41.40
2019-03-02T04:41:06.747Z,39.77
2019-03-02T04:43:34.446Z,43.53
2019-03-02T04:46:02.089Z,42.77
2019-03-02T04:48:29.726Z,45.37
2019-03-02T04:50:59.668Z,45.83
2019-03-02T04:53:46.291Z,45.47
2019-03-02T04:56:13.964Z,43.63
2019-03-02T04:58:43.649Z,47.47
2019-03-02T05:01:11.102Z,45.63
2019-03-02T05:03:38.800Z,44.17
2019-03-02T05:06:06.404Z,49.50
2019-03-02T05:08:34.057Z,48.47
2019-03-02T05:11:03.674Z,49.77
2019-03-02T05:13:31.150Z,48.70
2019-03-02T05:15:58.778Z,55.90
2019-03-02T05:18:26.457Z,51.20
2019-03-02T05:20:54.068Z,53.37
2019-03-02T05:23:21.750Z,53.00
2019-03-02T05:25:51.658Z,60.10
2019-03-02T05:28:18.864Z,50.87
2019-03-02T05:30:46.507Z,58.03
2019-03-02T05:33:14.145Z,57.43
2019-03-02T05:35:41.795Z,59.87
2019-03-02T05:38:11.760Z,52.40
2019-03-02T05:40:38.944Z,58.70
2019-03-02T05:43:06.654Z,50.97
2019-03-02T05:45:34.281Z,59.73
2019-03-02T05:48:04.858Z,60.17
2019-03-02T05:50:34.434Z,55.83
2019-03-02T05:53:02.147Z,62.47
2019-03-02T05:55:29.793Z,63.97
2019-03-02T05:57:57.450Z,59.97
2019-03-02T06:00:25.119Z,60.47
2019-03-02T06:02:52.798Z,59.50
2019-03-02T06:05:20.435Z,62.90
2019-03-02T06:07:48.097Z,68.53
2019-03-02T06:10:15.710Z,66.93
2019-03-02T06:12:43.387Z,68.83
2019-03-02T06:15:12.211Z,62.03
2019-03-02T06:17:39.918Z,64.47
2019-03-02T06:20:07.959Z,72.83
2019-03-02T06:22:35.640Z,66.17
2019-03-02T06:25:03.702Z,69.23
2019-03-02T06:27:31.328Z,70.47
2019-03-02T06:29:59.016Z,69.20
2019-03-02T06:32:29.921Z,66.23
2019-03-02T06:34:57.015Z,73.13
2019-03-02T06:37:24.746Z,67.50
2019-03-02T06:39:52.451Z,68.60
2019-03-02T06:42:20.059Z,73.97
2019-03-02T06:44:47.720Z,71.97
2019-03-02T06:47:15.345Z,67.23
2019-03-02T06:49:42.998Z,73.17
2019-03-02T06:52:10.619Z,73.20
2019-03-02T06:54:38.335Z,77.93
2019-03-02T06:57:05.942Z,74.30
2019-03-02T06:59:35.868Z,83.37
2019-03-02T07:02:03.188Z,83.03
2019-03-02T07:04:31.070Z,78.93
2019-03-02T07:06:58.718Z,82.73
2019-03-02T07:09:26.351Z,87.00
2019-03-02T07:11:53.979Z,89.73
2019-03-02T07:14:21.683Z,89.33
2019-03-02T07:16:52.046Z,82.13
2019-03-02T07:19:41.151Z,84.03
2019-03-02T07:22:08.794Z,80.77
2019-03-02T07:24:36.525Z,80.50
2019-03-02T07:27:04.150Z,84.27
2019-03-02T07:29:32.051Z,81.27
2019-03-02T07:31:59.809Z,80.60
2019-03-02T07:34:27.622Z,76.43
2019-03-02T07:36:55.276Z,70.70
2019-03-02T07:39:22.895Z,74.93
2019-03-02T07:41:54.157Z,77.13
2019-03-02T07:44:22.228Z,80.00
2019-03-02T07:46:49.473Z,78.67
2019-03-02T07:49:17.187Z,78.63
2019-03-02T07:51:44.801Z,76.23
2019-03-02T07:54:12.515Z,74.77
2019-03-02T07:56:40.187Z,69.00
2019-03-02T07:59:07.933Z,73.10
2019-03-02T08:01:35.592Z,64.83
2019-03-02T08:04:03.617Z,73.83
2019-03-02T08:06:31.263Z,67.53
2019-03-02T08:08:59.950Z,69.40
2019-03-02T08:11:27.567Z,71.70
2019-03-02T08:13:55.244Z,72.37
2019-03-02T08:16:22.870Z,70.30
2019-03-02T08:18:50.538Z,69.67
2019-03-02T08:21:18.179Z,68.23
2019-03-02T08:23:45.895Z,65.00
2019-03-02T08:26:13.538Z,69.43
2019-03-02T08:28:42.177Z,68.23
2019-03-02T08:31:10.624Z,70.30
2019-03-02T08:33:45.627Z,69.47
2019-03-02T08:36:07.720Z,68.43
2019-03-02T08:38:35.679Z,67.90
2019-03-02T08:41:03.385Z,70.03
2019-03-02T08:43:31.045Z,66.27
2019-03-02T08:45:58.687Z,66.10
2019-03-02T08:48:26.353Z,67.30
2019-03-02T08:50:54.150Z,59.57
2019-03-02T08:53:21.853Z,66.10
2019-03-02T08:55:49.525Z,65.30
2019-03-02T08:58:17.243Z,68.57
2019-03-02T09:00:44.870Z,60.13
2019-03-02T09:03:14.942Z,64.13
2019-03-02T09:05:46.905Z,57.80
2019-03-02T09:08:12.477Z,56.33
2019-03-02T09:10:40.051Z,55.27
2019-03-02T09:13:07.921Z,57.50
2019-03-02T09:15:35.493Z,56.37
2019-03-02T09:18:03.201Z,58.27
2019-03-02T09:20:32.414Z,59.07
2019-03-02T09:23:01.654Z,58.60
2019-03-02T09:25:29.615Z,58.00
2019-03-02T09:27:57.365Z,56.53
2019-03-02T09:30:25.725Z,54.77
2019-03-02T09:32:53.899Z,56.93
2019-03-02T09:35:21.538Z,56.70
2019-03-02T09:37:49.163Z,53.93
2019-03-02T09:40:16.950Z,54.30
2019-03-02T09:42:44.555Z,48.17
2019-03-02T09:45:13.260Z,56.43
2019-03-02T09:47:43.925Z,51.53
2019-03-02T09:50:13.634Z,48.70
2019-03-02T09:52:41.768Z,53.63
2019-03-02T09:55:10.371Z,51.03
2019-03-02T09:57:41.367Z,53.20
2019-03-02T10:00:19.219Z,47.40
2019-03-02T10:02:50.104Z,50.53
2019-03-02T10:05:17.595Z,44.23
2019-03-02T10:07:48.635Z,50.63
2019-03-02T10:10:16.383Z,48.07
2019-03-02T10:12:47.337Z,44.27
2019-03-02T10:15:15.499Z,45.00
2019-03-02T10:17:43.147Z,45.00
2019-03-02T10:20:10.960Z,38.97
2019-03-02T10:22:38.605Z,45.13
2019-03-02T10:25:06.909Z,40.80
2019-03-02T10:27:34.586Z,40.13
2019-03-02T10:30:02.279Z,44.10
2019-03-02T10:32:30.027Z,41.40
2019-03-02T10:34:57.857Z,37.93
2019-03-02T10:37:25.507Z,40.90
2019-03-02T10:39:53.163Z,44.07
2019-03-02T10:42:20.810Z,41.77
2019-03-02T10:44:48.449Z,37.90
2019-03-02T10:47:16.678Z,35.70
2019-03-02T10:49:44.703Z,39.00
2019-03-02T10:52:14.448Z,35.93
2019-03-02T10:54:42.263Z,32.40
2019-03-02T10:57:09.905Z,37.43
2019-03-02T10:59:37.536Z,35.90
2019-03-02T11:02:05.767Z,33.23
2019-03-02T11:04:44.363Z,39.00
2019-03-02T11:07:31.641Z,36.23
2019-03-02T11:10:09.146Z,35.53
2019-03-02T11:13:11.370Z,36.17
2019-03-02T11:15:45.113Z,31.57
2019-03-02T11:18:38.280Z,34.73
2019-03-02T11:21:25.483Z,37.93
2019-03-02T11:24:10.160Z,35.90
2019-03-02T11:26:45.266Z,32.53
2019-03-02T11:29:31.600Z,33.27
2019-03-02T11:32:28.102Z,34.30
2019-03-02T11:35:19.453Z,27.93
2019-03-02T11:38:05.821Z,31.37
2019-03-02T11:40:44.647Z,27.70
2019-03-02T11:43:38.076Z,32.20
2019-03-02T11:46:21.178Z,29.33
2019-03-02T11:49:17.342Z,27.47
2019-03-02T11:51:54.240Z,32.03
2019-03-02T11:54:47.197Z,31.60
2019-03-02T11:57:24.098Z,29.17
2019-03-02T12:00:26.525Z,30.23
2019-03-02T12:03:03.956Z,29.73
2019-03-02T12:05:51.091Z,31.60
2019-03-02T12:08:36.779Z,27.63
2019-03-02T12:11:22.534Z,27.77
2019-03-02T12:14:24.702Z,28.80
2019-03-02T12:17:10.311Z,28.87
2019-03-02T12:19:53.240Z,28.73
2019-03-02T12:22:43.669Z,29.43
2019-03-02T12:25:37.543Z,26.70
2019-03-02T12:28:33.008Z,27.43
2019-03-02T12:31:17.740Z,30.27
2019-03-02T12:34:13.819Z,26.10
2019-03-02T12:36:58.465Z,23.57
2019-03-02T12:39:51.644Z,24.17
2019-03-02T12:42:26.691Z,25.57
2019-03-02T12:45:14.024Z,24.33
2019-03-02T12:47:59.913Z,27.73
2019-03-02T12:50:47.073Z,25.97
2019-03-02T12:53:29.036Z,23.33
2019-03-02T12:56:35.664Z,26.57
2019-03-02T12:59:21.561Z,28.47
2019-03-02T13:02:10.080Z,24.50
2019-03-02T13:04:54.979Z,25.33
2019-03-02T13:07:50.774Z,28.17
2019-03-02T13:10:40.902Z,26.23
2019-03-02T13:13:20.675Z,27.00
2019-03-02T13:16:14.348Z,29.63
2019-03-02T13:18:51.401Z,29.20
2019-03-02T13:21:30.508Z,29.00
2019-03-02T13:24:19.158Z,27.23
2019-03-02T13:27:11.256Z,26.50
2019-03-02T13:30:07.607Z,27.70
2019-03-02T13:32:58.347Z,28.50
2019-03-02T13:35:37.626Z,28.30
2019-03-02T13:38:24.788Z,25.90
2019-03-02T13:41:11.887Z,23.40
2019-03-02T13:43:45.516Z,28.20
2019-03-02T13:46:25.979Z,27.43
2019-03-02T13:49:13.115Z,29.03
2019-03-02T13:52:03.186Z,27.93
2019-03-02T13:54:52.225Z,25.30
2019-03-02T13:57:26.095Z,22.67
2019-03-02T14:00:19.125Z,22.83
2019-03-02T14:03:30.401Z,22.90
2019-03-02T14:06:18.330Z,20.63
2019-03-02T14:09:04.727Z,21.57
2019-03-02T14:12:03.637Z,21.00
2019-03-02T14:14:44.897Z,22.70
2019-03-02T14:17:35.311Z,21.37
2019-03-02T14:20:20.676Z,17.30
2019-03-02T14:23:01.822Z,21.57
2019-03-02T14:25:52.364Z,16.33
2019-03-02T14:28:38.283Z,19.83
2019-03-02T14:31:20.382Z,15.33
2019-03-02T14:33:53.204Z,15.30
2019-03-02T14:36:36.338Z,15.00
2019-03-02T14:39:11.526Z,13.90
2019-03-02T14:41:46.115Z,13.13
2019-03-02T14:44:39.809Z,15.27
2019-03-02T14:47:33.048Z,12.63
2019-03-02T14:50:21.188Z,11.90
2019-03-02T14:53:10.043Z,15.13
2019-03-02T14:56:06.303Z,12.97
2019-03-02T14:58:57.738Z,13.07
2019-03-02T15:01:53.873Z,15.20
2019-03-02T15:04:32.511Z,10.93
2019-03-02T15:07:31.727Z,14.27
2019-03-02T15:10:07.504Z,20.80
2019-03-02T15:12:53.937Z,18.00
2019-03-02T15:15:43.976Z,15.87
2019-03-02T15:18:39.946Z,15.20
2019-03-02T15:21:33.571Z,18.43
2019-03-02T15:24:20.730Z,16.37
2019-03-02T15:27:03.369Z,17.47
2019-03-02T15:30:03.296Z,15.83
2019-03-02T15:32:41.933Z,15.00
2019-03-02T15:35:33.686Z,17.07
2019-03-02T15:38:20.972Z,16.93
2019-03-02T15:41:09.315Z,14.23
2019-03-02T15:43:59.604Z,19.07
2019-03-02T15:46:32.322Z,20.80
2019-03-02T15:49:11.420Z,18.37
2019-03-02T15:52:04.257Z,18.57
2019-03-02T15:55:04.895Z,15.27
2019-03-02T15:57:54.957Z,20.07
2019-03-02T16:01:00.119Z,19.00
2019-03-02T16:03:36.033Z,16.03
2019-03-02T16:06:23.225Z,22.97
2019-03-02T16:09:14.675Z,20.20
2019-03-02T16:12:04.291Z,24.50
2019-03-02T16:14:44.229Z,23.10
2019-03-02T16:17:41.299Z,21.17
2019-03-02T16:20:28.874Z,20.60
2019-03-02T16:23:09.659Z,25.20
2019-03-02T16:26:13.069Z,24.00
2019-03-02T16:28:50.927Z,24.50
2019-03-02T16:31:34.134Z,26.70
2019-03-02T16:34:30.387Z,26.20
2019-03-02T16:37:16.953Z,32.53
2019-03-02T16:39:57.217Z,27.83
2019-03-02T16:42:50.941Z,25.57
2019-03-02T16:45:54.354Z,26.77
2019-03-02T16:48:40.056Z,22.70
2019-03-02T16:51:40.029Z,27.43
2019-03-02T16:54:26.275Z,19.50
2019-03-02T16:57:16.134Z,23.37
2019-03-02T17:00:10.325Z,22.60
2019-03-02T17:02:57.948Z,22.97
2019-03-02T17:05:40.229Z,25.00
2019-03-02T17:08:31.164Z,26.93
2019-03-02T17:11:22.417Z,23.50
2019-03-02T17:14:05.243Z,24.97
2019-03-02T17:17:03.572Z,22.17
2019-03-02T17:19:53.758Z,23.43
2019-03-02T17:22:33.958Z,22.03
2019-03-02T17:25:34.699Z,18.00
2019-03-02T17:28:35.343Z,19.73
2019-03-02T17:31:09.990Z,18.63
2019-03-02T17:33:52.629Z,16.60
2019-03-02T17:36:42.920Z,14.93
2019-03-02T17:39:30.050Z,16.17
2019-03-02T17:42:08.609Z,16.60
2019-03-02T17:45:14.141Z,16.10
2019-03-02T17:47:53.561Z,13.63
2019-03-02T17:50:39.309Z,13.83
2019-03-02T17:53:38.442Z,14.17
2019-03-02T17:56:31.558Z,17.07
2019-03-02T17:59:24.986Z,16.73
2019-03-02T18:02:18.430Z,16.77
2019-03-02T18:05:14.497Z,17.30
2019-03-02T18:08:01.592Z,17.53
2019-03-02T18:10:48.766Z,16.47
2019-03-02T18:13:35.652Z,15.50
2019-03-02T18:16:26.800Z,17.73
2019-03-02T18:18:54.429Z,15.90
2019-03-02T18:21:22.108Z,19.10
2019-03-02T18:23:51.634Z,28.30
2019-03-02T18:26:20.692Z,27.97
2019-03-02T18:28:50.090Z,20.43
2019-03-02T18:31:20.208Z,21.27
2019-03-02T18:33:51.029Z,17.07
2019-03-02T18:36:18.683Z,20.43
2019-03-02T18:38:49.007Z,22.97
2019-03-02T18:41:16.533Z,20.87
2019-03-02T18:43:45.827Z,19.10
2019-03-02T18:46:16.347Z,23.63
2019-03-02T18:49:01.053Z,25.60
2019-03-02T18:51:48.189Z,26.33
2019-03-02T18:54:15.857Z,29.30
2019-03-02T18:56:43.961Z,28.97
2019-03-02T18:59:11.568Z,26.97
2019-03-02T19:01:39.660Z,22.50
2019-03-02T19:04:07.345Z,23.27
2019-03-02T19:06:35.026Z,23.60
2019-03-02T19:09:04.540Z,25.53
2019-03-02T19:11:32.222Z,22.53
2019-03-02T19:13:59.899Z,23.17
2019-03-02T19:16:27.687Z,22.83
2019-03-02T19:18:57.054Z,22.57
2019-03-02T19:21:24.815Z,24.30
2019-03-02T19:23:52.483Z,20.83
2019-03-02T19:26:20.175Z,21.20
2019-03-02T19:28:47.841Z,26.33
2019-03-02T19:31:15.556Z,25.60
2019-03-02T19:33:43.312Z,25.67
2019-03-02T19:36:11.012Z,24.30
2019-03-02T19:38:38.625Z,29.50
2019-03-02T19:41:06.313Z,31.70
2019-03-02T19:43:33.921Z,26.47
2019-03-02T19:46:02.595Z,27.87
2019-03-02T19:48:30.479Z,26.20
2019-03-02T19:50:58.161Z,31.50
2019-03-02T19:53:25.782Z,25.77
2019-03-02T19:55:53.488Z,28.13
2019-03-02T19:58:21.132Z,30.60
2019-03-02T20:00:48.808Z,29.00
2019-03-02T20:03:16.466Z,28.33
2019-03-02T20:05:44.206Z,28.57
2019-03-02T20:08:11.785Z,24.27
2019-03-02T20:10:39.491Z,23.03
2019-03-02T20:13:07.199Z,20.33
2019-03-02T20:15:34.884Z,21.37
2019-03-02T20:18:02.494Z,17.90
2019-03-02T20:20:30.218Z,18.13
2019-03-02T20:22:57.879Z,26.70
2019-03-02T20:25:25.586Z,16.23
2019-03-02T20:27:53.259Z,19.73
2019-03-02T20:30:20.939Z,20.53
2019-03-02T20:32:48.652Z,18.37
2019-03-02T20:35:18.347Z,17.23
2019-03-02T20:37:46.185Z,18.93
2019-03-02T20:40:16.293Z,14.33
2019-03-02T20:42:44.530Z,18.73
2019-03-02T20:45:13.658Z,16.30
2019-03-02T20:47:41.389Z,15.23
2019-03-02T20:50:11.230Z,12.17
2019-03-02T20:52:38.990Z,10.53
2019-03-02T20:55:07.957Z,12.47
2019-03-02T20:57:38.746Z,10.93
2019-03-02T21:00:10.620Z,12.00
2019-03-02T21:02:38.317Z,13.00
2019-03-02T21:05:08.224Z,14.07
2019-03-02T21:07:35.943Z,15.53
2019-03-02T21:10:04.652Z,16.80
2019-03-02T21:12:32.383Z,13.83
2019-03-02T21:15:00.051Z,16.60
2019-03-02T21:17:29.446Z,13.23
2019-03-02T21:19:57.196Z,12.03
2019-03-02T21:22:24.894Z,13.70
2019-03-02T21:24:52.586Z,11.23
2019-03-02T21:27:20.267Z,9.53
2019-03-02T21:29:47.934Z,10.37
2019-03-02T21:32:15.614Z,6.97
2019-03-02T21:34:43.310Z,8.80
2019-03-02T21:37:10.961Z,9.17
2019-03-02T21:39:38.558Z,6.60
2019-03-02T21:42:06.215Z,8.87
2019-03-02T21:44:33.906Z,8.90
2019-03-02T21:47:01.578Z,11.23
2019-03-02T21:49:31.429Z,9.63
2019-03-02T21:51:59.194Z,7.50
2019-03-02T21:54:26.834Z,7.93
2019-03-02T21:56:54.507Z,9.90
2019-03-02T21:59:22.122Z,10.13
2019-03-02T22:01:49.831Z,11.00
2019-03-02T22:04:17.448Z,11.90
2019-03-02T22:06:45.107Z,12.40
2019-03-02T22:09:12.735Z,12.90
2019-03-02T22:11:40.373Z,12.80
2019-03-02T22:14:07.994Z,16.93
2019-03-02T22:16:35.636Z,13.37
2019-03-02T22:19:03.312Z,14.33
2019-03-02T22:21:30.947Z,16.07
2019-03-02T22:23:58.577Z,12.83
2019-03-02T22:26:27.381Z,9.47
2019-03-02T22:28:54.987Z,12.40
2019-03-02T22:31:25.530Z,11.70
2019-03-02T22:33:53.216Z,16.50
2019-03-02T22:36:20.868Z,15.30
2019-03-02T22:38:54.330Z,17.03
2019-03-02T22:41:22.002Z,19.33
2019-03-02T22:43:49.694Z,11.93
2019-03-02T22:46:17.375Z,12.10
2019-03-02T22:48:45.036Z,12.23
2019-03-02T22:51:12.702Z,10.40
2019-03-02T22:53:40.418Z,9.47
2019-03-02T22:56:08.050Z,14.43
2019-03-02T22:58:35.168Z,15.20
2019-03-02T23:01:45.158Z,13.53
2019-03-02T23:04:12.825Z,13.73
2019-03-02T23:06:40.590Z,14.57
2019-03-02T23:09:10.576Z,14.30
2019-03-02T23:11:38.241Z,13.07
2019-03-02T23:14:05.900Z,14.50
2019-03-02T23:16:33.509Z,15.80
2019-03-02T23:19:01.157Z,13.80
2019-03-02T23:21:28.784Z,16.93
2019-03-02T23:23:56.547Z,14.57
2019-03-02T23:26:24.178Z,17.43
2019-03-02T23:28:51.824Z,15.23
2019-03-02T23:31:19.457Z,13.50
2019-03-02T23:33:47.080Z,16.13
2019-03-02T23:36:14.733Z,12.60
2019-03-02T23:38:42.375Z,13.67
2019-03-02T23:41:10.061Z,15.30
2019-03-02T23:43:37.723Z,13.43
2019-03-02T23:46:05.467Z,11.87
2019-03-02T23:48:33.113Z,12.27
2019-03-02T23:51:00.842Z,14.00
2019-03-02T23:53:28.522Z,12.73
2019-03-02T23:55:56.142Z,12.30
2019-03-02T23:58:23.923Z,10.20
